Latest Weather Observations for Broken Hill Airport

IDN60801

Issued at 11:03 am EST Saturday 27 August 2016 (issued every 30 minutes, with the page automatically refreshed every 10 minutes)

About weather observations | Map of weather stations | Latest weather observations for NSW | Other Formats
Station Details ID: 047048 Name: BROKEN HILL AIRPORT AWS Lat: -32.00 Lon: 141.47 Height: 281.3 m
Data from the previous 72 hours. | See also: Recent months at Broken Hill Airport
Date/Time
EST
Temp
°C
App
Temp
°C
Dew
Point
°C
Rel
Hum
%
Delta-T
°C
Wind Press
QNH
hPa
Press
MSL
hPa
Rain since
9am
mm
Dir  Spd
km/h
Gust
km/h
Spd
kts
Gust
kts
27/10:30am 13.7 9.0 1.0 42 5.5 NNW 15 22 8 12 1025.1 1025.2 0.0
27/10:00am 13.3 9.3 3.1 50 4.6 NNE 13 19 7 10 1025.2 1025.3 0.0
27/09:30am 11.8 7.3 2.0 51 4.2 NNE 15 19 8 10 1025.3 1025.4 0.0
27/09:00am 10.5 6.5 2.6 58 3.4 NNE 13 17 7 9 1025.1 1025.2 0.0
27/08:30am 9.6 5.5 2.2 60 3.2 NNE 13 15 7 8 1024.8 1024.9 0.0
27/08:00am 6.1 3.0 3.6 84 1.1 NE 9 11 5 6 1024.8 1024.9 0.0
27/07:30am 2.5 -1.4 0.9 89 0.6 NNE 11 11 6 6 1024.7 1024.8 0.0
27/07:00am 1.0 -2.8 -0.6 89 0.6 NNE 9 11 5 6 1024.4 1024.5 0.0
27/06:30am 1.0 -2.2 -0.6 89 0.6 NNE 6 7 3 4 1024.2 1024.3 0.0
27/06:00am 0.8 -3.0 -0.8 89 0.6 NNE 9 11 5 6 1023.9 1024.0 0.0
27/05:30am 0.9 -2.9 -0.7 89 0.6 NNE 9 9 5 5 1023.5 1023.6 0.0
27/05:00am 2.0 -1.3 -0.1 86 0.8 NNE 7 9 4 5 1023.5 1023.6 0.0
27/04:30am 1.7 -1.7 -0.9 83 0.9 NNE 7 9 4 5 1023.4 1023.5 0.0
27/04:00am 2.4 -1.0 -0.5 81 1.1 NNE 7 9 4 5 1023.4 1023.5 0.0
27/03:30am 3.6 -0.5 0.0 77 1.4 NE 11 13 6 7 1023.3 1023.4 0.0
27/03:00am 2.8 -1.6 0.5 85 0.9 NE 13 13 7 7 1023.3 1023.4 0.0
27/02:30am 1.8 -1.9 -0.3 86 0.8 NE 9 11 5 6 1023.6 1023.7 0.0
27/02:00am 2.6 -0.8 -0.5 80 1.1 NNE 7 7 4 4 1024.0 1024.1 0.0
27/01:30am 4.9 1.7 0.5 73 1.7 NNE 7 9 4 5 1024.2 1024.3 0.0
27/01:00am 5.1 1.1 0.3 71 1.9 NE 11 13 6 7 1024.2 1024.3 0.0
27/12:30am 5.5 1.6 1.1 73 1.8 ENE 11 13 6 7 1024.3 1024.4 0.0
27/12:00am 3.9 0.2 -0.3 74 1.6 ENE 9 11 5 6 1024.4 1024.5 0.0
 
Date/Time
EST
Temp
°C
App
Temp
°C
Dew
Point
°C
Rel
Hum
%
Delta-T
°C
Wind Press
QNH
hPa
Press
MSL
hPa
Rain since
9am
mm
Dir  Spd
km/h
Gust
km/h
Spd
kts
Gust
kts
26/11:30pm 6.1 2.5 0.6 68 2.2 NE 9 13 5 7 1024.4 1024.5 0.0
26/11:00pm 7.3 3.8 1.0 64 2.5 ENE 9 11 5 6 1024.4 1024.5 0.0
26/10:30pm 7.0 3.9 1.1 66 2.4 E 7 7 4 4 1024.4 1024.5 0.0
26/10:00pm 6.4 4.5 0.5 66 2.3 CALM 0 0 0 0 1024.3 1024.4 0.0
26/09:30pm 7.7 5.9 1.3 64 2.6 CALM 0 0 0 0 1024.4 1024.5 0.0
26/09:00pm 7.7 5.9 1.5 65 2.6 CALM 0 0 0 0 1024.4 1024.5 0.0
26/08:30pm 7.8 6.1 2.1 67 2.4 CALM 0 0 0 0 1024.3 1024.4 0.0
26/08:00pm 7.0 4.0 1.7 69 2.2 SE 7 9 4 5 1024.0 1024.1 0.0
26/07:30pm 7.0 3.9 1.3 67 2.3 SSE 7 11 4 6 1023.8 1023.9 0.0
26/07:00pm 7.8 3.6 1.4 64 2.6 SE 13 13 7 7 1023.4 1023.5 0.0
26/06:30pm 9.4 5.2 1.6 58 3.3 SSE 13 17 7 9 1023.2 1023.3 0.0
26/06:00pm 11.4 6.7 1.1 49 4.4 SSW 15 20 8 11 1022.8 1023.0 0.0
26/05:30pm 12.5 7.1 1.5 47 4.8 S 19 26 10 14 1022.7 1022.8 0.0
26/05:00pm 13.2 8.3 2.1 47 4.9 SSW 17 24 9 13 1022.4 1022.5 0.0
26/04:30pm 13.8 8.3 0.8 41 5.6 WSW 19 32 10 17 1022.4 1022.5 0.0
26/04:00pm 13.5 8.0 1.8 45 5.1 SSW 20 28 11 15 1022.5 1022.6 0.0
26/03:30pm 13.3 7.5 2.2 47 4.9 SSW 22 28 12 15 1022.4 1022.5 0.0
26/03:00pm 13.0 8.1 2.0 47 4.8 SW 17 26 9 14 1022.6 1022.7 0.0
26/02:30pm 13.0 7.5 1.7 46 4.9 SW 20 30 11 16 1022.7 1022.8 0.0
26/02:00pm 12.6 6.3 1.3 46 4.9 SW 24 32 13 17 1023.2 1023.3 0.0
26/01:30pm 13.0 7.6 2.6 49 4.6 SW 20 32 11 17 1023.5 1023.6 0.0
26/01:00pm 13.1 7.8 2.9 50 4.6 SSW 20 32 11 17 1023.9 1024.0 0.0
26/12:30pm 12.4 7.5 2.0 49 4.5 SSW 17 28 9 15 1024.1 1024.2 0.0
26/12:00pm 13.2 8.6 3.6 52 4.4 SW 17 24 9 13 1024.4 1024.5 0.0
26/11:30am 11.9 7.1 2.4 52 4.2 S 17 28 9 15 1024.7 1024.8 0.0
26/11:00am 11.7 6.4 3.0 55 3.8 S 20 28 11 15 1024.8 1024.9 0.0
26/10:30am 11.4 6.5 4.2 61 3.3 S 19 26 10 14 1024.8 1024.9 0.0
26/10:00am 10.2 6.6 5.0 70 2.4 SSW 13 19 7 10 1024.9 1025.0 0.0
26/09:30am 9.0 5.0 5.0 76 1.8 SSW 15 20 8 11 1024.9 1025.0 0.0
26/09:00am 7.7 4.4 4.7 81 1.3 SSW 11 17 6 9 1024.8 1024.9 0.0
26/08:30am 5.9 3.2 3.6 85 1.0 SSW 7 11 4 6 1024.5 1024.6 0.0
26/08:00am 4.3 1.5 2.3 87 0.8 WSW 6 7 3 4 1024.5 1024.6 0.0
26/07:30am 2.9 0.4 1.3 89 0.6 WSW 4 6 2 3 1024.1 1024.2 0.0
26/07:00am 2.5 -0.5 0.9 89 0.6 WSW 6 7 3 4 1023.9 1024.0 0.0
26/06:30am 2.7 -0.9 0.6 86 0.8 WSW 9 11 5 6 1023.5 1023.6 0.0
26/06:00am 3.3 -0.2 1.2 86 0.8 WSW 9 9 5 5 1023.1 1023.2 0.0
26/05:30am 2.9 1.0 0.3 83 1.0 CALM 0 0 0 0 1022.8 1023.0 0.0
26/05:00am 3.8 1.9 0.8 81 1.2 CALM 0 0 0 0 1022.5 1022.6 0.0
26/04:30am 3.5 1.6 0.6 81 1.1 CALM 0 0 0 0 1022.3 1022.4 0.0
26/04:00am 3.2 1.3 0.3 81 1.1 CALM 0 0 0 0 1022.1 1022.2 0.0
26/03:30am 4.2 2.3 0.4 76 1.5 CALM 0 0 0 0 1021.8 1021.9 0.0
26/03:00am 4.7 2.8 0.3 73 1.7 CALM 0 0 0 0 1021.9 1022.0 0.0
26/02:30am 4.9 2.9 -0.3 69 2.0 CALM 0 0 0 0 1021.9 1022.0 0.0
26/02:00am 3.8 1.8 -0.2 75 1.5 CALM 0 0 0 0 1022.0 1022.1 0.0
26/01:30am 4.1 2.2 0.6 78 1.4 CALM 0 0 0 0 1022.1 1022.2 0.0
26/01:00am 2.7 0.6 -1.1 76 1.4 CALM 0 0 0 0 1021.9 1022.0 0.0
26/12:30am 5.2 3.2 -0.4 67 2.1 CALM 0 0 0 0 1021.6 1021.7 0.0
26/12:00am 5.9 3.9 0.0 66 2.3 CALM 0 0 0 0 1021.6 1021.7 0.0
 
Date/Time
EST
Temp
°C
App
Temp
°C
Dew
Point
°C
Rel
Hum
%
Delta-T
°C
Wind Press
QNH
hPa
Press
MSL
hPa
Rain since
9am
mm
Dir  Spd
km/h
Gust
km/h
Spd
kts
Gust
kts
25/11:30pm 5.4 3.4 0.0 68 2.1 CALM 0 0 0 0 1021.4 1021.5 0.0
25/11:00pm 5.6 3.6 0.2 68 2.1 CALM 0 0 0 0 1021.3 1021.4 0.0
25/10:30pm 5.8 2.5 0.0 66 2.3 SE 7 9 4 5 1021.3 1021.4 0.0
25/10:00pm 6.4 2.8 0.3 65 2.4 SSE 9 11 5 6 1021.3 1021.4 0.0
25/09:30pm 6.2 1.9 0.7 68 2.2 SSE 13 13 7 7 1021.1 1021.2 0.0
25/09:00pm 6.3 2.0 1.0 69 2.1 SE 13 15 7 8 1020.9 1021.0 0.0
25/08:30pm 6.5 2.7 1.6 71 2.0 SE 11 13 6 7 1020.6 1020.7 0.0
25/08:00pm 6.8 2.6 1.9 71 2.0 SSE 13 13 7 7 1020.2 1020.3 0.0
25/07:30pm 7.6 4.7 2.5 70 2.2 SSE 7 11 4 6 1019.9 1020.0 0.0
25/07:00pm 8.1 4.4 2.1 66 2.5 SSE 11 13 6 7 1019.5 1019.5 0.0
25/06:30pm 9.8 6.1 2.2 59 3.3 SSE 11 13 6 7 1019.1 1019.2 0.0
25/06:00pm 12.0 7.0 1.3 48 4.6 S 17 24 9 13 1018.7 1018.8 0.0
25/05:30pm 13.0 7.6 1.4 45 5.0 S 19 24 10 13 1018.3 1018.4 0.0
25/05:00pm 13.3 7.8 1.6 45 5.1 SSW 20 28 11 15 1018.0 1018.1 0.0
25/04:30pm 14.1 9.2 1.7 43 5.5 SSW 17 28 9 15 1017.7 1017.8 0.0
25/04:00pm 13.5 8.6 2.1 46 5.0 S 17 24 9 13 1017.5 1017.6 0.0
25/03:30pm 14.4 9.6 2.6 45 5.3 S 17 26 9 14 1017.4 1017.5 0.0
25/03:00pm 13.9 8.5 1.5 43 5.4 SSW 19 26 10 14 1017.7 1017.8 0.0
25/02:30pm 13.7 9.0 2.9 48 4.9 SSW 17 26 9 14 1017.8 1017.9 0.0
25/02:00pm 13.7 9.5 1.4 43 5.4 SSW 13 20 7 11 1017.8 1017.9 0.0
25/01:30pm 13.5 8.6 1.8 45 5.1 S 17 22 9 12 1018.2 1018.3 0.0
25/01:00pm 13.1 8.1 1.1 44 5.2 S 17 24 9 13 1018.5 1018.6 0.0
25/12:30pm 12.4 7.8 1.4 47 4.7 S 15 24 8 13 1018.7 1018.8 0.0
25/12:00pm 11.9 7.5 2.6 53 4.1 S 15 22 8 12 1018.8 1018.9 0.0
25/11:30am 12.0 7.7 3.5 56 3.8 S 15 20 8 11 1018.9 1019.0 0.0
25/11:00am 10.9 6.7 3.9 62 3.1 SSE 15 19 8 10 1019.1 1019.2 0.0
25/10:30am 10.3 6.9 4.2 66 2.8 SSE 11 17 6 9 1018.9 1019.0 0.0
25/10:00am 8.8 4.6 3.8 71 2.2 S 15 20 8 11 1018.8 1018.9 0.0
25/09:30am 8.6 4.8 4.0 73 2.0 S 13 17 7 9 1018.5 1018.6 0.0
25/09:00am 7.3 2.7 3.7 78 1.6 S 17 20 9 11 1018.4 1018.5 0.0
25/08:30am 6.2 2.8 3.9 85 1.0 SSW 11 15 6 8 1018.0 1018.1 0.0
25/08:00am 3.8 1.8 2.2 89 0.6 SSW 2 7 1 4 1017.7 1017.8 0.0
25/07:30am 2.5 -1.0 1.0 90 0.6 SW 9 11 5 6 1017.4 1017.5 0.0
25/07:00am 2.6 -0.9 1.4 92 0.5 SW 9 9 5 5 1017.0 1017.1 0.0
25/06:30am 2.2 -1.4 0.7 90 0.6 SSW 9 9 5 5 1016.5 1016.5 0.0
25/06:00am 3.3 1.6 1.8 90 0.6 CALM 0 0 0 0 1016.2 1016.2 0.0
25/05:30am 3.2 1.4 0.9 85 0.9 CALM 0 0 0 0 1015.7 1015.7 0.0
25/05:00am 4.8 3.2 2.7 86 0.9 CALM 0 0 0 0 1015.3 1015.4 0.0
25/04:30am 4.7 3.1 2.4 85 0.9 CALM 0 0 0 0 1015.2 1015.3 0.0
25/04:00am 4.6 3.0 2.3 85 0.9 CALM 0 6 0 3 1015.3 1015.4 0.0
25/03:30am 5.3 2.1 2.8 84 1.0 W 9 13 5 7 1015.3 1015.4 0.0
25/03:00am 2.8 -0.8 0.5 85 0.9 SW 9 11 5 6 1015.5 1015.5 0.0
25/02:30am 5.1 3.4 2.1 81 1.2 CALM 0 0 0 0 1015.2 1015.3 0.0
25/02:00am 4.6 2.9 2.0 83 1.1 CALM 0 0 0 0 1015.3 1015.4 0.0
25/01:30am 4.0 2.2 1.4 83 1.0 CALM 0 0 0 0 1015.3 1015.4 0.0
25/01:00am 4.9 3.4 2.8 86 0.9 CALM 0 0 0 0 1015.2 1015.3 0.0
25/12:30am 4.8 3.2 2.3 84 1.0 CALM 0 0 0 0 1015.3 1015.4 0.0
25/12:00am 6.0 4.4 2.6 79 1.4 CALM 0 0 0 0 1015.5 1015.5 0.0
 
Date/Time
EST
Temp
°C
App
Temp
°C
Dew
Point
°C
Rel
Hum
%
Delta-T
°C
Wind Press
QNH
hPa
Press
MSL
hPa
Rain since
9am
mm
Dir  Spd
km/h
Gust
km/h
Spd
kts
Gust
kts
24/11:30pm 7.1 5.7 3.5 78 1.6 CALM 0 0 0 0 1015.5 1015.5 0.0
24/11:00pm 7.2 5.8 3.6 78 1.6 CALM 0 0 0 0 1015.6 1015.6 0.0
24/10:30pm 6.9 5.5 3.5 79 1.5 CALM 0 0 0 0 1015.7 1015.7 0.0
24/10:00pm 7.1 5.8 3.9 80 1.4 CALM 0 0 0 0 1015.6 1015.6 0.0
24/09:30pm 7.1 5.6 3.2 76 1.7 CALM 0 0 0 0 1015.6 1015.6 0.0
24/09:00pm 8.6 7.3 4.2 74 2.0 CALM 0 0 0 0 1015.2 1015.3 0.0
24/08:30pm 9.1 7.4 3.9 70 2.3 S 2 6 1 3 1015.1 1015.2 0.0
24/08:00pm 9.1 7.8 4.1 71 2.2 CALM 0 0 0 0 1015.0 1015.1 0.0
24/07:30pm 9.7 8.4 4.1 68 2.5 CALM 0 0 0 0 1014.7 1014.8 0.0
24/07:00pm 9.4 6.4 4.0 69 2.4 S 9 13 5 7 1014.5 1014.6 0.0
24/06:30pm 10.3 7.2 3.8 64 2.9 S 9 11 5 6 1014.2 1014.3 0.0
24/06:00pm 12.2 8.2 2.9 53 4.1 SSW 13 19 7 10 1013.7 1013.7 0.0
24/05:30pm 13.6 8.4 2.5 47 5.0 S 19 22 10 12 1013.5 1013.5 0.0
24/05:00pm 14.4 9.1 2.9 46 5.2 S 20 28 11 15 1013.1 1013.1 0.0
24/04:30pm 14.6 8.9 2.8 45 5.4 SW 22 30 12 16 1012.9 1012.9 0.0
24/04:00pm 14.8 9.8 4.5 50 4.9 SW 20 28 11 15 1012.7 1012.7 0.0
24/03:30pm 15.1 10.7 4.5 49 5.0 WSW 17 28 9 15 1012.6 1012.6 0.0
24/03:00pm 14.6 9.3 3.1 46 5.3 SW 20 28 11 15 1012.6 1012.6 0.0
24/02:30pm 13.8 9.3 4.1 52 4.5 SSW 17 24 9 13 1012.7 1012.7 0.0
24/02:00pm 14.2 9.4 5.8 57 4.1 SSW 20 26 11 14 1013.2 1013.2 0.0
24/01:30pm 14.1 9.6 4.1 51 4.6 SSW 17 24 9 13 1013.4 1013.4 0.0
24/01:00pm 12.9 8.0 4.3 56 4.0 SSW 19 30 10 16 1013.8 1013.9 0.0
24/12:30pm 13.3 8.5 4.7 56 4.0 S 19 26 10 14 1014.0 1014.1 0.0
24/12:00pm 13.2 8.9 5.4 59 3.7 SSW 17 22 9 12 1014.4 1014.5 0.0

Other Formats:

Comma delimited format used in spreadsheet applications
http://www.bom.gov.au/fwo/IDN60801/IDN60801.94691.axf

JavaScript Object Notation format (JSON) in row-major order
http://www.bom.gov.au/fwo/IDN60801/IDN60801.94691.json